Time;durP1;ratioP1;P1;durP2;ratioP2;P2;SDS_P1;SDS_P2;PMS_P1;PMS_P2;Temp;Humidity;BMP_temperature;BMP_pressure;BME280_temperature;BME280_humidity;BME280_pressure;Samples;Min_cycle;Max_cycle;Signal;HPM_P1;HPM_P2
2020/12/01 00:01:10;;;;;;;18.98;7.20;;;3.80;99.90;;;4.53;72.63;101120.00;5072859;28;20252;-75
2020/12/01 00:03:40;;;;;;;18.30;7.50;;;3.80;99.90;;;4.52;72.53;101117.44;5072064;28;20195;-75
2020/12/01 00:06:06;;;;;;;16.57;6.90;;;3.80;99.90;;;4.52;72.47;101117.44;5073156;28;20192;-75
2020/12/01 00:08:34;;;;;;;15.40;6.63;;;3.80;99.90;;;4.53;72.70;101116.56;5072998;28;20218;-75
2020/12/01 00:11:01;;;;;;;17.83;7.43;;;3.80;99.90;;;4.56;72.71;101114.81;5073385;28;20237;-75
2020/12/01 00:13:27;;;;;;;15.63;6.30;;;3.80;99.90;;;4.57;72.39;101111.34;5072055;28;20192;-75
2020/12/01 00:15:53;;;;;;;19.38;7.25;;;3.80;99.90;;;4.53;72.09;101114.84;5072039;28;20207;-75
2020/12/01 00:18:20;;;;;;;16.90;6.50;;;3.80;99.90;;;4.50;72.32;101103.63;5072870;28;20203;-76
2020/12/01 00:20:47;;;;;;;17.02;7.15;;;3.80;99.90;;;4.49;72.32;101107.06;5071478;28;20207;-75
2020/12/01 00:23:14;;;;;;;17.47;7.23;;;3.80;99.90;;;4.50;72.18;101104.50;5073043;28;20195;-76
2020/12/01 00:25:40;;;;;;;15.63;6.40;;;3.80;99.90;;;4.48;72.22;101098.47;5072897;28;20280;-75
2020/12/01 00:28:06;;;;;;;19.88;7.03;;;3.80;99.90;;;4.51;72.45;101101.03;5072715;28;20180;-75
2020/12/01 00:30:34;;;;;;;16.98;7.53;;;3.80;99.90;;;4.54;72.19;101090.63;5071467;28;20587;-74
2020/12/01 00:33:00;;;;;;;20.27;7.68;;;3.80;99.90;;;4.54;72.23;101100.13;5071517;28;20659;-75
2020/12/01 00:35:30;;;;;;;15.98;6.82;;;3.80;99.90;;;4.55;72.03;101102.75;5070642;28;20184;-76
2020/12/01 00:37:57;;;;;;;20.15;8.18;;;3.80;99.90;;;4.52;72.08;101091.53;5072788;28;20192;-75
2020/12/01 00:40:24;;;;;;;18.70;7.90;;;3.80;99.90;;;4.50;72.00;101088.94;5072602;28;20699;-75
2020/12/01 00:42:50;;;;;;;17.48;7.38;;;3.80;99.90;;;4.48;71.66;101082.03;5071335;28;20250;-75
2020/12/01 00:45:17;;;;;;;17.02;6.85;;;3.80;99.90;;;4.46;71.76;101081.19;5072862;28;20188;-76
2020/12/01 00:47:44;;;;;;;18.88;7.47;;;3.70;99.90;;;4.46;72.00;101079.47;5072533;28;20188;-75
2020/12/01 00:50:16;;;;;;;19.38;7.40;;;3.70;99.90;;;4.53;71.58;101078.56;5087450;28;20227;-75
2020/12/01 00:52:43;;;;;;;21.23;8.17;;;3.80;99.90;;;4.53;71.55;101073.38;5072224;28;20184;-75
2020/12/01 00:55:10;;;;;;;20.65;7.95;;;3.80;99.90;;;4.56;71.73;101070.75;5087359;28;20313;-75
2020/12/01 00:57:36;;;;;;;16.63;6.78;;;3.80;99.90;;;4.55;71.51;101071.66;5071080;28;20188;-75
2020/12/01 01:00:07;;;;;;;18.48;7.55;;;3.90;99.90;;;4.54;71.45;101071.63;5070996;28;20235;-76
2020/12/01 01:02:54;;;;;;;16.70;6.85;;;3.90;99.90;;;4.52;71.60;101071.63;5072789;28;20232;-75
2020/12/01 01:05:21;;;;;;;19.20;8.48;;;3.80;99.90;;;4.51;71.68;101074.25;5072296;28;20202;-75
2020/12/01 01:07:51;;;;;;;17.60;7.65;;;3.80;99.90;;;4.51;71.54;101067.34;5070942;28;20249;-75
2020/12/01 01:10:24;;;;;;;21.13;8.27;;;3.80;99.90;;;4.56;71.54;101067.31;5071771;28;20212;-74
2020/12/01 01:12:50;;;;;;;19.73;7.80;;;3.90;99.90;;;4.58;71.69;101063.84;5071904;28;20275;-75
2020/12/01 01:15:17;;;;;;;19.35;8.15;;;3.80;99.90;;;4.58;71.26;101065.56;5070655;28;20192;-75
2020/12/01 01:17:44;;;;;;;21.83;7.85;;;3.90;99.90;;;4.57;71.27;101061.28;5072458;28;20191;-75
2020/12/01 01:20:11;;;;;;;22.03;8.60;;;3.90;99.90;;;4.59;71.54;101051.72;5070538;28;20219;-74
2020/12/01 01:22:38;;;;;;;16.65;7.45;;;3.90;99.90;;;4.54;71.51;101053.50;5070625;28;20188;-74
2020/12/01 01:25:06;;;;;;;22.25;8.38;;;3.90;99.90;;;4.55;71.30;101052.63;5070785;28;20192;-75
2020/12/01 01:27:32;;;;;;;21.83;7.70;;;3.90;99.90;;;4.56;71.51;101057.81;5070600;28;20192;-74
2020/12/01 01:29:58;;;;;;;22.35;8.65;;;3.90;99.90;;;4.60;71.52;101048.28;5070319;28;20231;-75
2020/12/01 01:32:24;;;;;;;15.80;7.25;;;3.90;99.90;;;4.60;71.39;101054.34;5070613;28;20195;-74
2020/12/01 01:34:51;;;;;;;19.85;8.35;;;3.90;99.90;;;4.61;71.29;101057.75;5070841;28;20192;-74
2020/12/01 01:37:17;;;;;;;18.33;7.97;;;3.90;99.90;;;4.57;71.06;101054.34;5087328;28;20645;-75
2020/12/01 01:39:43;;;;;;;20.48;7.75;;;3.80;99.90;;;4.57;71.43;101043.13;5071114;28;20204;-75
2020/12/01 01:42:11;;;;;;;20.95;8.23;;;3.80;99.90;;;4.58;71.08;101045.72;5070644;28;20196;-75
2020/12/01 01:44:38;;;;;;;19.65;7.93;;;3.90;99.90;;;4.61;71.00;101044.81;5071575;28;20184;-74
2020/12/01 01:47:19;;;;;;;22.00;8.70;;;3.90;99.90;;;4.63;71.05;101038.75;5071604;28;20199;-75
2020/12/01 01:49:48;;;;;;;21.65;8.05;;;3.80;99.90;;;4.64;71.31;101035.28;5070164;28;20357;-75
2020/12/01 01:52:20;;;;;;;21.35;8.70;;;3.90;99.90;;;4.63;71.06;101033.56;5072301;28;20212;-75
2020/12/01 01:54:52;;;;;;;19.38;8.70;;;3.90;99.90;;;4.60;71.08;101030.16;5070719;28;20722;-75
2020/12/01 01:57:20;;;;;;;18.20;8.27;;;3.90;99.90;;;4.57;71.17;101032.78;5071178;28;20221;-74
2020/12/01 01:59:49;;;;;;;22.85;9.07;;;3.90;99.90;;;4.52;71.30;101017.25;5082642;28;20208;-75
2020/12/01 02:02:16;;;;;;;22.25;8.60;;;3.80;99.90;;;4.53;71.23;101024.16;5083222;28;20184;-75
2020/12/01 02:04:44;;;;;;;20.40;8.18;;;3.80;99.90;;;4.47;71.46;101026.78;5077201;28;20192;-74
2020/12/01 02:07:10;;;;;;;18.43;8.53;;;3.80;99.90;;;4.42;71.47;101022.53;5070585;28;20531;-75
2020/12/01 02:09:43;;;;;;;23.67;8.68;;;3.70;99.90;;;4.42;71.59;101020.78;5071735;28;20208;-75
2020/12/01 02:12:17;;;;;;;21.65;8.65;;;3.70;99.90;;;4.49;71.81;101025.03;5071218;28;20211;-75
2020/12/01 02:14:50;;;;;;;22.80;8.30;;;3.80;99.90;;;4.50;71.53;101021.59;5073521;28;20192;-74
2020/12/01 02:17:23;;;;;;;21.17;8.53;;;3.80;99.90;;;4.48;71.50;101015.56;5089211;28;20199;-74
2020/12/01 02:19:52;;;;;;;20.33;8.98;;;3.80;99.90;;;4.47;71.70;101019.00;5079283;28;20203;-75
2020/12/01 02:22:21;;;;;;;20.05;8.45;;;3.70;99.90;;;4.49;71.61;101017.28;5091248;28;20188;-76
2020/12/01 02:24:50;;;;;;;21.48;8.52;;;3.80;99.90;;;4.54;71.78;101012.03;5087958;28;20188;-75
2020/12/01 02:27:21;;;;;;;18.80;7.88;;;3.80;99.90;;;4.54;71.69;101012.91;5087223;28;20191;-75
2020/12/01 02:29:52;;;;;;;24.58;9.30;;;3.80;99.90;;;4.54;71.51;101012.91;5073033;28;20597;-75
2020/12/01 02:32:20;;;;;;;20.98;8.40;;;3.80;99.90;;;4.57;71.74;101015.47;5075246;28;20237;-75
2020/12/01 02:34:52;;;;;;;19.25;8.15;;;3.80;99.90;;;4.57;71.80;101007.69;5070261;28;20283;-75
2020/12/01 02:37:24;;;;;;;18.83;8.43;;;3.90;99.90;;;4.59;71.35;101010.28;5073878;28;20230;-75
2020/12/01 02:39:51;;;;;;;26.00;9.00;;;3.80;99.90;;;4.57;71.63;101006.84;5073504;28;20219;-75
2020/12/01 02:42:23;;;;;;;20.65;9.10;;;3.90;99.90;;;4.59;71.45;101005.09;5073621;28;20578;-74
2020/12/01 02:44:49;;;;;;;22.20;9.00;;;3.90;99.90;;;4.59;71.40;100992.13;5074454;28;20557;-75
2020/12/01 02:47:15;;;;;;;20.50;8.20;;;3.90;99.90;;;4.57;71.37;100993.91;5073613;28;20671;-75
2020/12/01 02:49:42;;;;;;;21.87;8.97;;;3.90;99.90;;;4.56;71.66;101002.53;5074000;28;20214;-75
2020/12/01 02:52:08;;;;;;;20.95;9.55;;;3.80;99.90;;;4.62;71.90;100995.56;5074717;28;20873;-75
2020/12/01 02:54:34;;;;;;;23.05;8.60;;;3.90;99.90;;;4.65;71.63;100995.56;5073320;28;20215;-75
2020/12/01 02:57:01;;;;;;;19.07;8.50;;;3.90;99.90;;;4.60;71.51;100997.34;5073061;28;20725;-75
2020/12/01 02:59:28;;;;;;;21.05;8.77;;;3.90;99.90;;;4.56;71.82;100998.22;5074288;28;20212;-75
2020/12/01 03:01:54;;;;;;;27.10;10.15;;;3.90;99.90;;;4.56;71.71;100990.44;5073110;28;20188;-75
2020/12/01 03:04:20;;;;;;;23.30;9.68;;;3.90;99.90;;;4.58;71.63;100999.06;5074453;28;20184;-75
2020/12/01 03:06:47;;;;;;;20.33;8.82;;;3.90;99.90;;;4.61;71.88;101001.63;5072716;28;20241;-75
2020/12/01 03:09:17;;;;;;;20.88;9.85;;;3.90;99.90;;;4.62;71.81;101003.34;5072746;28;20196;-74
2020/12/01 03:11:44;;;;;;;23.83;10.20;;;4.00;99.90;;;4.68;71.75;101007.59;5074597;28;20718;-75
2020/12/01 03:14:10;;;;;;;28.08;11.13;;;4.00;99.90;;;4.72;71.43;101006.72;5089968;28;20196;-76
2020/12/01 03:16:38;;;;;;;24.65;9.98;;;4.00;99.90;;;4.69;71.54;101005.00;5069502;28;20319;-75
2020/12/01 03:19:04;;;;;;;22.30;10.07;;;4.00;99.90;;;4.69;71.86;101002.41;5073354;28;20189;-75
2020/12/01 03:21:30;;;;;;;22.63;10.48;;;4.00;99.90;;;4.70;71.74;101000.69;5089577;28;20192;-75
2020/12/01 03:23:57;;;;;;;25.27;10.82;;;4.00;99.90;;;4.69;71.75;101010.19;5074380;28;20208;-75
2020/12/01 03:26:23;;;;;;;25.23;10.57;;;4.00;99.90;;;4.67;72.04;101001.56;5072580;28;20195;-75
2020/12/01 03:28:50;;;;;;;24.67;10.20;;;4.00;99.90;;;4.69;72.12;101002.41;5073635;28;20188;-75
2020/12/01 03:31:20;;;;;;;26.58;10.60;;;4.00;99.90;;;4.68;72.22;100998.13;5073649;28;20212;-75
2020/12/01 03:33:49;;;;;;;27.45;11.13;;;4.00;99.90;;;4.65;72.28;100998.16;5073740;28;20183;-75
2020/12/01 03:36:15;;;;;;;27.92;11.85;;;4.00;99.90;;;4.69;72.37;100997.22;5070699;28;20652;-75
2020/12/01 03:38:42;;;;;;;29.07;11.93;;;4.00;99.90;;;4.70;72.48;100993.78;5073349;28;20188;-75
2020/12/01 03:41:08;;;;;;;28.15;11.15;;;4.00;99.90;;;4.67;72.43;100996.38;5072513;28;20258;-75
2020/12/01 03:43:35;;;;;;;27.70;11.77;;;4.00;99.90;;;4.67;72.53;100998.13;5072406;28;20192;-75
2020/12/01 03:46:02;;;;;;;27.88;12.50;;;4.00;99.90;;;4.62;72.68;100998.16;5072325;28;20214;-75
2020/12/01 03:48:29;;;;;;;29.17;12.30;;;4.00;99.90;;;4.66;73.20;101001.56;5088732;28;20656;-75
2020/12/01 03:50:56;;;;;;;28.73;12.23;;;4.10;99.90;;;4.72;73.17;100999.78;5072219;28;20223;-75
2020/12/01 03:53:23;;;;;;;27.83;12.18;;;4.10;99.90;;;4.74;73.09;100995.44;5089219;28;20592;-75
2020/12/01 03:55:50;;;;;;;27.52;12.32;;;4.10;99.90;;;4.73;73.00;100998.06;5072599;28;20662;-75
2020/12/01 03:58:16;;;;;;;29.23;11.77;;;4.10;99.90;;;4.69;73.34;100989.47;5073936;28;20259;-75
2020/12/01 04:00:42;;;;;;;29.45;12.73;;;4.00;99.90;;;4.65;73.43;100989.50;5073721;28;20207;-75
2020/12/01 04:03:09;;;;;;;26.73;11.73;;;4.00;99.90;;;4.62;73.95;100981.75;5072551;28;20645;-75
2020/12/01 04:05:35;;;;;;;29.65;12.48;;;3.90;99.90;;;4.62;73.69;100980.00;5072841;28;20275;-75
2020/12/01 04:08:02;;;;;;;32.35;13.35;;;4.00;99.90;;;4.64;74.07;100983.47;5072010;28;20218;-73
2020/12/01 04:10:28;;;;;;;27.02;11.95;;;3.90;99.90;;;4.64;74.11;100986.03;5073038;28;20211;-75
2020/12/01 04:12:55;;;;;;;30.30;13.13;;;4.00;99.90;;;4.65;74.17;100990.38;5073098;28;20195;-75
2020/12/01 04:15:24;;;;;;;29.10;12.57;;;4.00;99.90;;;4.61;74.19;100988.66;5071861;28;20196;-75
2020/12/01 04:17:51;;;;;;;29.08;13.18;;;4.00;99.90;;;4.61;74.48;100986.09;5071348;28;20192;-75
2020/12/01 04:20:17;;;;;;;33.57;13.63;;;3.90;99.90;;;4.64;74.61;100988.63;5070955;28;20619;-74
2020/12/01 04:22:44;;;;;;;29.10;12.43;;;3.90;99.90;;;4.65;74.75;100992.09;5072811;28;20211;-75
2020/12/01 04:25:14;;;;;;;31.20;13.00;;;4.00;99.90;;;4.66;75.03;100992.09;5088056;28;20199;-75
2020/12/01 04:27:40;;;;;;;30.52;13.65;;;4.00;99.90;;;4.64;75.10;101004.19;5071076;28;20354;-74
2020/12/01 04:30:08;;;;;;;29.52;13.38;;;4.00;99.90;;;4.60;75.02;101002.50;5069763;28;20218;-75
2020/12/01 04:32:34;;;;;;;36.05;14.93;;;4.00;99.90;;;4.61;75.42;100995.56;5072221;28;20649;-75
2020/12/01 04:35:05;;;;;;;33.57;13.77;;;4.00;99.90;;;4.63;75.63;100988.66;5072435;28;20714;-75
2020/12/01 04:37:33;;;;;;;30.42;13.82;;;4.00;99.90;;;4.62;75.89;100985.19;5071488;28;20196;-75
2020/12/01 04:39:59;;;;;;;35.20;14.57;;;4.00;99.90;;;4.63;76.05;100989.53;5071853;28;20208;-74
2020/12/01 04:42:28;;;;;;;35.17;14.95;;;4.00;99.90;;;4.61;76.03;100983.50;5072273;28;20238;-74
2020/12/01 04:45:02;;;;;;;32.83;13.53;;;4.00;99.90;;;4.61;76.00;100986.09;5087133;28;20203;-75
2020/12/01 04:47:32;;;;;;;33.33;13.77;;;4.00;99.90;;;4.59;76.31;100989.53;5087763;28;20215;-75
2020/12/01 04:50:07;;;;;;;34.90;15.00;;;4.00;99.90;;;4.64;76.28;100990.34;5071916;28;20605;-75
2020/12/01 04:53:02;;;;;;;33.97;14.93;;;4.00;99.90;;;4.66;76.16;100992.09;5072165;28;20207;-75
2020/12/01 04:56:10;;;;;;;32.22;13.65;;;4.00;99.90;;;4.67;76.38;100992.94;5072113;28;20518;-75
2020/12/01 04:58:59;;;;;;;33.20;14.05;;;4.10;99.90;;;4.64;76.07;100988.63;5071866;28;20259;-75
2020/12/01 05:02:09;;;;;;;36.90;13.85;;;4.00;99.90;;;4.57;76.55;100992.16;5071584;28;20203;-75
2020/12/01 05:04:47;;;;;;;34.97;13.32;;;4.00;99.90;;;4.56;76.65;100989.56;5070347;28;20222;-74
2020/12/01 05:07:30;;;;;;;37.67;14.38;;;4.00;99.90;;;4.54;76.58;100987.00;5069975;28;20191;-74
2020/12/01 05:10:02;;;;;;;36.23;14.03;;;3.90;99.90;;;4.53;76.52;100985.31;5086810;28;20216;-75
2020/12/01 05:12:34;;;;;;;31.08;14.10;;;3.90;99.90;;;4.55;76.64;100983.56;5087096;28;20230;-75
2020/12/01 05:15:13;;;;;;;37.42;14.48;;;3.90;99.90;;;4.54;76.65;100981.81;5071509;28;20202;-75
2020/12/01 05:18:11;;;;;;;38.75;15.77;;;3.90;99.90;;;4.57;76.12;100984.38;5070143;28;20194;-75
2020/12/01 05:20:47;;;;;;;34.38;13.88;;;3.90;99.90;;;4.58;76.48;100999.06;5071523;28;20572;-76
2020/12/01 05:23:18;;;;;;;36.60;15.07;;;3.90;99.90;;;4.60;76.33;101005.09;5071517;28;20184;-74
2020/12/01 05:25:44;;;;;;;36.05;14.70;;;4.00;99.90;;;4.57;76.37;101005.09;5071730;28;20257;-75
2020/12/01 05:28:17;;;;;;;36.67;14.83;;;3.90;99.90;;;4.50;76.27;101003.47;5070124;28;20196;-75
2020/12/01 05:30:45;;;;;;;39.03;15.52;;;3.80;99.90;;;4.49;76.59;101004.31;5071777;28;20219;-75
2020/12/01 05:33:22;;;;;;;33.67;15.43;;;3.80;99.90;;;4.50;76.83;101010.38;5071389;28;20191;-75
2020/12/01 05:36:03;;;;;;;35.53;14.80;;;3.90;99.90;;;4.56;76.55;101016.34;5071294;28;20188;-75
2020/12/01 05:38:31;;;;;;;36.70;15.77;;;3.90;99.90;;;4.62;76.68;101016.28;5073470;28;20207;-75
2020/12/01 05:41:01;;;;;;;35.67;14.97;;;4.00;99.90;;;4.69;76.60;101024.88;5069870;28;20258;-75
2020/12/01 05:43:35;;;;;;;34.67;14.63;;;4.10;99.90;;;4.66;76.27;101025.75;5070036;28;20283;-75
2020/12/01 05:46:17;;;;;;;34.30;14.60;;;4.00;99.90;;;4.58;76.47;101030.16;5071314;28;20212;-76
2020/12/01 05:49:01;;;;;;;33.17;14.10;;;3.90;99.90;;;4.56;76.48;101020.66;5069681;28;20188;-75
2020/12/01 05:51:38;;;;;;;38.53;14.23;;;3.90;99.90;;;4.49;76.45;101034.53;5070036;28;20208;-75
2020/12/01 05:54:05;;;;;;;38.00;15.23;;;3.90;99.90;;;4.43;76.90;101025.09;5071420;28;20199;-75
2020/12/01 05:56:32;;;;;;;34.40;14.80;;;3.80;99.90;;;4.48;76.93;101033.69;5088703;28;20192;-74
2020/12/01 05:59:05;;;;;;;39.13;15.90;;;3.80;99.90;;;4.52;76.95;101035.38;5083652;28;20184;-74
2020/12/01 06:01:43;;;;;;;36.35;14.93;;;3.90;99.90;;;4.59;76.74;101033.59;5083830;28;20207;-74
2020/12/01 06:04:14;;;;;;;35.37;15.30;;;3.90;99.90;;;4.55;76.88;101032.78;5088321;28;20198;-75
2020/12/01 06:07:11;;;;;;;35.83;15.17;;;3.90;99.90;;;4.53;76.99;101037.13;5087211;28;20257;-75
2020/12/01 06:09:58;;;;;;;37.65;15.95;;;3.90;99.90;;;4.56;76.73;101038.81;5066665;28;20269;-75
2020/12/01 06:12:55;;;;;;;37.10;15.30;;;3.90;99.90;;;4.51;76.83;101033.66;5086619;28;20691;-75
2020/12/01 06:15:22;;;;;;;34.90;15.02;;;3.90;99.90;;;4.56;76.74;101041.41;5071502;28;20184;-75
2020/12/01 06:17:57;;;;;;;35.47;13.73;;;3.90;99.90;;;4.59;76.73;101041.38;5086363;28;20203;-75
2020/12/01 06:20:31;;;;;;;37.78;15.00;;;3.90;99.90;;;4.53;76.69;101052.66;5069483;28;20226;-75
2020/12/01 06:23:36;;;;;;;37.38;14.95;;;3.80;99.90;;;4.46;76.88;101040.63;5071317;28;20168;-75
2020/12/01 06:26:46;;;;;;;38.55;14.65;;;3.80;99.90;;;4.44;77.36;101039.75;5071049;28;20195;-75
2020/12/01 06:29:48;;;;;;;35.58;13.45;;;3.80;99.90;;;4.43;77.11;101038.06;5086266;28;20196;-74
2020/12/01 06:33:08;;;;;;;37.10;15.95;;;3.80;99.90;;;4.46;77.33;101045.78;5070698;28;20212;-75
2020/12/01 06:36:32;;;;;;;36.35;14.50;;;3.80;99.90;;;4.45;77.08;101049.28;5066166;28;20302;-74
2020/12/01 06:39:19;;;;;;;36.72;14.05;;;3.80;99.90;;;4.41;77.12;101057.06;5085707;28;20274;-75
2020/12/01 06:41:55;;;;;;;36.90;13.68;;;3.70;99.90;;;4.38;77.17;101051.91;5072105;28;20184;-75
2020/12/01 06:44:26;;;;;;;37.78;14.38;;;3.70;99.90;;;4.36;77.44;101051.91;5087222;28;20222;-75
2020/12/01 06:46:56;;;;;;;38.87;15.43;;;3.70;99.90;;;4.37;77.49;101045.84;5071518;28;20188;-75
2020/12/01 06:49:27;;;;;;;38.95;15.45;;;3.70;99.90;;;4.41;77.30;101057.06;5087063;28;20212;-75
2020/12/01 06:51:59;;;;;;;41.43;16.87;;;3.80;99.90;;;4.47;77.69;101065.63;5097226;28;20216;-75
2020/12/01 06:54:26;;;;;;;40.03;16.08;;;3.80;99.90;;;4.50;77.55;101063.03;5087330;28;20192;-75
2020/12/01 06:57:00;;;;;;;42.40;16.60;;;3.90;99.90;;;4.50;77.03;101063.03;5086004;28;20203;-75
2020/12/01 06:59:27;;;;;;;40.53;16.33;;;3.90;99.90;;;4.53;77.39;101073.38;5086309;28;20215;-75
2020/12/01 07:02:05;;;;;;;38.70;15.80;;;3.90;99.90;;;4.55;77.24;101071.66;5086932;28;20192;-75
2020/12/01 07:04:32;;;;;;;35.35;14.55;;;3.90;99.90;;;4.54;77.20;101069.91;5070994;28;20196;-74
2020/12/01 07:07:02;;;;;;;38.47;15.35;;;3.90;99.90;;;4.50;77.04;101070.81;5086608;28;20189;-75
2020/12/01 07:09:33;;;;;;;43.13;15.27;;;3.90;99.90;;;4.48;77.22;101074.28;5071615;28;20722;-75
2020/12/01 07:12:41;;;;;;;41.20;16.02;;;3.80;99.90;;;4.46;77.05;101074.28;5087985;28;20214;-75
2020/12/01 07:15:15;;;;;;;39.95;17.13;;;3.80;99.90;;;4.44;77.03;101073.44;5071526;28;20200;-74
2020/12/01 07:17:57;;;;;;;40.40;16.33;;;3.80;99.90;;;4.43;77.48;101084.69;5089735;28;20196;-75
2020/12/01 07:20:40;;;;;;;36.63;14.70;;;3.80;99.90;;;4.50;77.39;101082.91;5088935;28;20211;-75
2020/12/01 07:23:32;;;;;;;38.17;14.87;;;3.80;99.90;;;4.57;77.03;101085.41;5089240;28;20570;-75
2020/12/01 07:26:22;;;;;;;38.10;15.18;;;3.90;99.90;;;4.55;76.98;101084.59;5073822;28;20796;-75
2020/12/01 07:29:15;;;;;;;39.25;14.68;;;3.90;99.90;;;4.56;77.10;101083.72;5072170;28;20197;-76
2020/12/01 07:31:41;;;;;;;33.53;14.13;;;3.90;99.90;;;4.56;77.09;101083.72;5071990;28;20228;-75
2020/12/01 07:34:28;;;;;;;40.63;14.70;;;3.90;99.90;;;4.54;77.00;101090.63;5073253;28;20195;-75
2020/12/01 07:37:29;;;;;;;38.13;15.55;;;3.90;99.90;;;4.53;77.40;101088.94;5089082;28;20214;-76
2020/12/01 07:39:59;;;;;;;36.88;14.73;;;3.90;99.90;;;4.54;77.12;101090.63;5086736;28;20212;-75
2020/12/01 07:42:29;;;;;;;37.50;14.63;;;3.90;99.90;;;4.60;77.23;101098.38;5073274;28;20188;-74
2020/12/01 07:44:56;;;;;;;40.90;15.43;;;3.90;99.90;;;4.67;77.37;101107.81;5073385;28;20191;-75
2020/12/01 07:47:26;;;;;;;37.80;14.77;;;4.00;99.90;;;4.74;77.23;101109.47;5071856;28;20223;-75
2020/12/01 07:49:58;;;;;;;37.85;15.00;;;4.10;99.90;;;4.75;77.14;101115.53;5072959;28;20204;-75
2020/12/01 07:52:33;;;;;;;36.37;15.53;;;4.20;99.90;;;4.72;76.86;101116.41;5088595;28;20263;-75
2020/12/01 07:55:06;;;;;;;36.80;15.40;;;4.10;99.90;;;4.72;76.91;101124.19;5073257;28;20183;-74
2020/12/01 07:57:32;;;;;;;41.80;16.48;;;4.10;99.90;;;4.73;76.82;101127.63;5071920;28;20196;-75
2020/12/01 08:00:01;;;;;;;36.15;14.63;;;4.20;99.90;;;4.74;76.54;101127.63;5088336;28;20216;-75
2020/12/01 08:02:38;;;;;;;36.57;14.93;;;4.10;99.90;;;4.74;76.85;101126.75;5072917;28;20194;-75
2020/12/01 08:05:11;;;;;;;41.10;15.77;;;4.20;99.90;;;4.78;76.60;101129.34;5073020;28;20250;-75
2020/12/01 08:07:38;;;;;;;35.37;15.93;;;4.20;99.90;;;4.82;76.73;101128.41;5085243;28;20712;-75
2020/12/01 08:10:10;;;;;;;40.33;16.48;;;4.30;99.90;;;4.87;76.62;101124.06;5104689;28;20200;-75
2020/12/01 08:12:42;;;;;;;38.38;14.68;;;4.30;99.90;;;4.85;76.68;101117.19;5088200;28;20219;-75
2020/12/01 08:15:15;;;;;;;40.60;16.10;;;4.30;99.90;;;4.83;76.37;101122.38;5072706;28;20184;-75
2020/12/01 08:17:42;;;;;;;40.33;15.87;;;4.30;99.90;;;4.83;76.56;101119.78;5088281;28;20200;-75
2020/12/01 08:20:13;;;;;;;35.72;14.65;;;4.30;99.90;;;4.87;76.55;101120.63;5072255;28;20208;-75
2020/12/01 08:22:46;;;;;;;37.83;15.70;;;4.30;99.90;;;4.90;76.16;101124.06;5072307;28;20208;-73
2020/12/01 08:25:18;;;;;;;34.33;14.85;;;4.30;99.90;;;4.92;76.29;101127.47;5072641;28;20176;-75
2020/12/01 08:27:53;;;;;;;38.40;14.38;;;4.30;99.90;;;4.87;76.34;101126.66;5071078;28;20703;-75
2020/12/01 08:30:32;;;;;;;34.50;14.55;;;4.30;99.90;;;4.85;76.21;101132.75;5087627;28;20219;-75
2020/12/01 08:33:17;;;;;;;35.47;14.65;;;4.30;99.90;;;4.90;76.08;101131.84;5071620;28;20212;-75
2020/12/01 08:35:53;;;;;;;35.50;14.23;;;4.40;99.90;;;4.97;76.27;101140.44;5087768;28;20200;-75
2020/12/01 08:38:38;;;;;;;37.92;15.50;;;4.40;99.90;;;5.03;75.95;101132.59;5087601;28;20215;-74
2020/12/01 08:41:25;;;;;;;33.92;14.15;;;4.50;99.90;;;5.04;75.74;101144.66;5070742;28;20208;-76
2020/12/01 08:44:00;;;;;;;31.48;12.70;;;4.50;99.90;;;5.06;75.92;101138.59;5072421;28;20234;-75
2020/12/01 08:46:29;;;;;;;40.25;14.73;;;4.50;99.90;;;5.10;75.64;101145.50;5086198;28;20203;-74
2020/12/01 08:49:06;;;;;;;34.67;15.70;;;4.60;99.90;;;5.15;75.78;101150.63;5070857;28;20261;-75
2020/12/01 08:51:38;;;;;;;35.45;14.40;;;4.60;99.90;;;5.14;75.46;101144.59;5072091;28;20688;-75
2020/12/01 08:54:14;;;;;;;34.53;13.93;;;4.60;99.90;;;5.21;75.61;101154.91;5087823;28;20196;-74
2020/12/01 08:57:15;;;;;;;34.53;14.10;;;4.70;99.90;;;5.26;75.40;101146.19;5071898;28;20187;-75
2020/12/01 08:59:47;;;;;;;32.30;14.20;;;4.70;99.90;;;5.32;75.11;101155.66;5086860;28;20223;-75
2020/12/01 09:02:18;;;;;;;33.83;13.80;;;4.80;99.90;;;5.35;75.05;101158.22;5070351;28;20188;-76
2020/12/01 09:04:44;;;;;;;35.25;14.23;;;4.80;99.90;;;5.38;75.09;101156.47;5072075;28;20184;-76
2020/12/01 09:07:24;;;;;;;35.13;14.35;;;4.90;99.90;;;5.38;74.83;101164.25;5072051;28;20198;-75
2020/12/01 09:10:07;;;;;;;35.25;14.82;;;4.90;99.90;;;5.45;74.76;101165.06;5087218;28;20226;-75
2020/12/01 09:12:37;;;;;;;33.97;13.82;;;5.00;99.90;;;5.48;74.82;101167.63;5070479;28;20216;-75
2020/12/01 09:15:24;;;;;;;31.90;13.90;;;5.00;99.90;;;5.50;74.65;101171.94;5071636;28;20191;-75
2020/12/01 09:18:09;;;;;;;33.38;13.48;;;5.00;99.90;;;5.53;74.50;101171.03;5070031;28;20203;-76
2020/12/01 09:21:01;;;;;;;30.27;13.18;;;5.10;99.90;;;5.50;74.39;101176.25;5070213;28;20265;-75
2020/12/01 09:23:32;;;;;;;31.38;13.02;;;5.00;99.90;;;5.52;74.30;101172.78;5071511;28;20608;-74
2020/12/01 09:26:01;;;;;;;31.90;13.27;;;5.00;99.90;;;5.53;74.49;101186.59;5070743;28;20188;-77
2020/12/01 09:28:31;;;;;;;36.05;14.30;;;5.00;99.90;;;5.54;74.41;101168.44;5071455;28;20180;-75
2020/12/01 09:31:03;;;;;;;33.03;14.48;;;5.00;99.90;;;5.64;75.05;101179.59;5071471;28;20211;-75
2020/12/01 09:33:31;;;;;;;32.83;13.98;;;5.10;99.90;;;5.67;74.96;101183.00;5069409;28;20633;-75
2020/12/01 09:35:57;;;;;;;31.38;12.88;;;5.10;99.90;;;5.56;74.27;101181.41;5070769;28;20188;-76
2020/12/01 09:38:24;;;;;;;28.60;12.60;;;5.00;99.90;;;5.41;74.08;101181.53;5070392;28;20203;-75
2020/12/01 09:40:53;;;;;;;33.80;12.85;;;4.90;99.90;;;5.36;74.41;101178.13;5071022;28;20244;-76
2020/12/01 09:43:25;;;;;;;32.90;13.20;;;4.80;99.90;;;5.39;74.53;101183.28;5069995;28;20196;-76
2020/12/01 09:45:53;;;;;;;34.95;13.50;;;4.80;99.90;;;5.35;74.17;101182.44;5071153;28;20249;-75
2020/12/01 09:48:25;;;;;;;31.73;13.20;;;4.80;99.90;;;5.33;74.33;101188.50;5071151;28;20206;-75
2020/12/01 09:50:53;;;;;;;31.42;12.80;;;4.80;99.90;;;5.30;74.14;101198.91;5070524;28;20641;-75
2020/12/01 09:53:41;;;;;;;31.65;13.38;;;4.70;99.90;;;5.23;74.19;101194.66;5074048;28;20278;-75
2020/12/01 09:56:14;;;;;;;29.67;12.90;;;4.70;99.90;;;5.20;74.13;101194.69;5099420;28;20197;-75
2020/12/01 09:59:22;;;;;;;34.03;12.73;;;4.70;99.90;;;5.21;74.37;101202.44;5085436;28;20185;-74
2020/12/01 10:05:03;;;;;;;32.53;12.65;;;4.70;99.90;;;5.25;74.44;101206.75;5072226;28;20184;-75
2020/12/01 10:10:32;;;;;;;31.80;12.65;;;4.60;99.90;;;5.14;74.55;101208.59;5061709;28;20234;-74
2020/12/01 10:13:06;;;;;;;31.80;12.65;;;4.60;99.90;;;5.11;74.29;101208.56;5086411;28;20586;-75
2020/12/01 10:15:51;;;;;;;34.22;13.35;;;4.50;99.90;;;5.09;74.54;101203.41;5069648;28;20640;-75
2020/12/01 10:18:51;;;;;;;32.35;12.57;;;4.50;99.90;;;5.16;74.52;101209.41;5070698;28;20257;-75
2020/12/01 10:33:54;;;;;;;32.45;12.93;;;4.70;99.90;;;5.30;74.31;101214.47;5069226;28;20220;-75
2020/12/01 10:35:22;;;;;;;31.83;13.05;;;4.70;99.90;;;5.32;74.25;101229.19;5068675;28;20192;-75
2020/12/01 10:37:52;;;;;;;31.98;13.30;;;4.70;99.90;;;5.31;74.55;101227.44;5068666;28;20220;-75
2020/12/01 10:40:20;;;;;;;28.52;11.98;;;4.70;99.90;;;5.29;74.39;101228.34;5069018;28;20211;-75
2020/12/01 10:42:46;;;;;;;31.23;12.45;;;4.60;99.90;;;5.24;74.27;101225.78;5070471;28;20188;-76
2020/12/01 10:45:13;;;;;;;35.55;13.18;;;4.60;99.90;;;5.22;74.54;101224.94;5069742;28;20193;-75
2020/12/01 10:47:40;;;;;;;32.17;13.32;;;4.60;99.90;;;5.23;74.52;101223.19;5074176;28;20192;-75
2020/12/01 10:50:06;;;;;;;30.17;13.15;;;4.60;99.90;;;5.28;74.73;101224.00;5073861;28;20220;-76
2020/12/01 10:52:33;;;;;;;30.77;12.40;;;4.60;99.90;;;5.30;74.58;101238.69;5090726;28;20753;-76
2020/12/01 10:54:59;;;;;;;29.73;12.85;;;4.70;99.90;;;5.33;74.45;101235.19;5076115;28;20233;-75
2020/12/01 10:57:26;;;;;;;32.55;12.82;;;4.70;99.90;;;5.33;74.40;101220.50;5074459;28;20191;-75